createdAt,value
2022-09-12T00:01:16.408Z,23.87
2022-09-12T00:03:43.640Z,23.91
2022-09-12T00:06:22.351Z,23.94
2022-09-12T00:08:50.502Z,23.93
2022-09-12T00:11:18.683Z,23.96
2022-09-12T00:13:46.360Z,23.98
2022-09-12T00:16:19.151Z,23.92
2022-09-12T00:18:47.256Z,23.91
2022-09-12T00:21:17.926Z,23.85
2022-09-12T00:23:46.038Z,23.81
2022-09-12T00:26:13.737Z,23.75
2022-09-12T00:28:42.120Z,23.70
2022-09-12T00:31:12.092Z,23.69
2022-09-12T00:33:39.622Z,23.60
2022-09-12T00:36:09.082Z,23.48
2022-09-12T00:38:37.821Z,23.49
2022-09-12T00:41:05.100Z,23.46
2022-09-12T00:43:39.017Z,23.44
2022-09-12T00:46:17.835Z,23.45
2022-09-12T00:48:52.312Z,23.39
2022-09-12T00:51:20.661Z,23.41
2022-09-12T00:53:53.831Z,23.35
2022-09-12T00:56:24.210Z,23.27
2022-09-12T00:58:58.191Z,23.27
2022-09-12T01:01:29.218Z,23.25
2022-09-12T01:03:59.391Z,23.18
2022-09-12T01:06:30.431Z,23.13
2022-09-12T01:09:00.731Z,23.15
2022-09-12T01:11:29.111Z,23.33
2022-09-12T01:13:56.670Z,23.65
2022-09-12T01:16:23.874Z,23.72
2022-09-12T01:19:05.671Z,23.69
2022-09-12T01:21:47.490Z,23.67
2022-09-12T01:24:42.691Z,23.74
2022-09-12T01:27:33.973Z,23.78
2022-09-12T01:30:33.290Z,23.85
2022-09-12T01:33:37.412Z,23.93
2022-09-12T01:36:29.692Z,23.99
2022-09-12T01:39:02.313Z,24.06
2022-09-12T01:41:42.211Z,23.99
2022-09-12T01:44:20.551Z,24.05
2022-09-12T01:46:55.112Z,23.96
2022-09-12T01:49:32.232Z,23.89
2022-09-12T01:52:09.651Z,23.89
2022-09-12T01:54:43.983Z,23.89
2022-09-12T01:57:18.710Z,23.92
2022-09-12T01:59:51.270Z,23.87
2022-09-12T02:02:26.416Z,23.71
2022-09-12T02:05:03.091Z,23.70
2022-09-12T02:07:37.313Z,23.76
2022-09-12T02:10:12.555Z,23.70
2022-09-12T02:12:48.992Z,23.72
2022-09-12T02:15:24.151Z,23.70
2022-09-12T02:17:57.672Z,23.63
2022-09-12T02:20:47.500Z,23.61
2022-09-12T02:23:20.870Z,23.62
2022-09-12T02:25:52.552Z,23.61
2022-09-12T02:28:25.251Z,23.58
2022-09-12T02:31:01.668Z,23.60
2022-09-12T02:33:39.149Z,23.52
2022-09-12T02:36:17.590Z,23.51
2022-09-12T02:38:48.151Z,23.46
2022-09-12T02:41:19.673Z,23.49
2022-09-12T02:43:48.871Z,23.46
2022-09-12T02:46:22.630Z,23.45
2022-09-12T02:48:49.733Z,23.46
2022-09-12T02:51:23.382Z,23.47
2022-09-12T02:53:52.310Z,23.56
2022-09-12T02:56:26.210Z,23.55
2022-09-12T02:58:54.249Z,23.48
2022-09-12T03:01:41.150Z,23.49
2022-09-12T03:04:28.789Z,23.51
2022-09-12T03:07:13.118Z,23.52
2022-09-12T03:09:49.970Z,23.55
2022-09-12T03:12:36.693Z,23.48
2022-09-12T03:15:20.851Z,23.46
2022-09-12T03:18:05.090Z,23.45
2022-09-12T03:20:48.329Z,23.42
2022-09-12T03:23:30.869Z,23.46
2022-09-12T03:26:06.150Z,23.41
2022-09-12T03:28:37.532Z,23.47
2022-09-12T03:31:13.813Z,23.36
2022-09-12T03:33:40.894Z,23.41
2022-09-12T03:36:16.411Z,23.44
2022-09-12T03:38:46.083Z,23.39
2022-09-12T03:41:13.271Z,23.35
2022-09-12T03:43:40.693Z,23.40
2022-09-12T03:46:08.111Z,23.28
2022-09-12T03:48:35.318Z,23.30
2022-09-12T03:51:03.591Z,23.29
2022-09-12T03:53:31.533Z,23.29
2022-09-12T03:56:00.691Z,23.27
2022-09-12T03:58:31.913Z,23.26
2022-09-12T04:00:59.050Z,23.24
2022-09-12T04:03:26.212Z,23.23
2022-09-12T04:05:53.272Z,23.20
2022-09-12T04:08:20.371Z,23.16
2022-09-12T04:10:47.432Z,23.16
2022-09-12T04:13:16.011Z,23.09
2022-09-12T04:15:43.251Z,23.02
2022-09-12T04:18:10.311Z,23.00
2022-09-12T04:20:37.370Z,22.98
2022-09-12T04:23:04.393Z,22.94
2022-09-12T04:25:31.530Z,22.95
2022-09-12T04:27:58.751Z,22.89
2022-09-12T04:30:27.314Z,22.83
2022-09-12T04:32:54.472Z,22.91
2022-09-12T04:35:21.511Z,22.80
2022-09-12T04:37:48.612Z,22.84
2022-09-12T04:40:15.791Z,22.86
2022-09-12T04:42:42.893Z,22.84
2022-09-12T04:45:11.050Z,22.84
2022-09-12T04:47:40.492Z,22.80
2022-09-12T04:50:08.892Z,22.83
2022-09-12T04:52:35.972Z,22.82
2022-09-12T04:55:03.070Z,22.81
2022-09-12T04:57:30.173Z,22.86
2022-09-12T04:59:57.792Z,22.83
2022-09-12T05:02:24.977Z,22.85
2022-09-12T05:04:53.571Z,22.87
2022-09-12T05:07:20.672Z,22.86
2022-09-12T05:09:47.811Z,22.76
2022-09-12T05:12:14.890Z,22.76
2022-09-12T05:14:41.983Z,22.82
2022-09-12T05:17:09.152Z,22.84
2022-09-12T05:19:36.212Z,22.96
2022-09-12T05:22:04.930Z,22.94
2022-09-12T05:24:32.150Z,22.93
2022-09-12T05:26:59.250Z,23.00
2022-09-12T05:29:26.350Z,22.99
2022-09-12T05:31:53.471Z,23.00
2022-09-12T05:34:21.269Z,23.00
2022-09-12T05:36:49.012Z,22.96
2022-09-12T05:39:17.713Z,22.93
2022-09-12T05:41:44.731Z,22.91
2022-09-12T05:44:13.592Z,22.84
2022-09-12T05:46:43.064Z,22.94
2022-09-12T05:49:12.666Z,22.95
2022-09-12T05:51:42.151Z,23.05
2022-09-12T05:54:12.791Z,23.25
2022-09-12T05:56:43.111Z,23.17
2022-09-12T05:59:13.532Z,23.15
2022-09-12T06:01:41.642Z,23.19
2022-09-12T06:04:09.392Z,23.25
2022-09-12T06:06:40.012Z,23.38
2022-09-12T06:09:07.715Z,23.44
2022-09-12T06:11:37.256Z,23.45
2022-09-12T06:14:05.753Z,23.44
2022-09-12T06:16:34.841Z,23.49
2022-09-12T06:19:04.231Z,23.60
2022-09-12T06:21:31.381Z,23.83
2022-09-12T06:23:59.310Z,24.07
2022-09-12T06:26:28.253Z,24.30
2022-09-12T06:28:57.693Z,24.63
2022-09-12T06:31:28.213Z,24.93
2022-09-12T06:33:56.792Z,25.19
2022-09-12T06:36:26.174Z,25.46
2022-09-12T06:38:58.152Z,25.76
2022-09-12T06:41:26.053Z,25.90
2022-09-12T06:43:54.435Z,26.13
2022-09-12T06:46:22.123Z,26.23
2022-09-12T06:48:51.172Z,26.38
2022-09-12T06:51:19.692Z,26.62
2022-09-12T06:53:48.570Z,26.72
2022-09-12T06:56:17.331Z,26.50
2022-09-12T06:58:44.576Z,26.73
2022-09-12T07:01:13.975Z,27.10
2022-09-12T07:03:43.073Z,27.36
2022-09-12T07:06:15.492Z,27.32
2022-09-12T07:08:42.958Z,27.46
2022-09-12T07:11:12.711Z,27.72
2022-09-12T07:13:40.632Z,27.71
2022-09-12T07:16:08.295Z,28.12
2022-09-12T07:18:36.351Z,28.18
2022-09-12T07:21:04.071Z,27.96
2022-09-12T07:23:33.081Z,28.15
2022-09-12T07:26:01.813Z,28.15
2022-09-12T07:28:31.594Z,28.15
2022-09-12T07:31:06.053Z,28.00
2022-09-12T07:33:33.491Z,28.40
2022-09-12T07:36:02.074Z,28.29
2022-09-12T07:38:29.172Z,28.47
2022-09-12T07:40:57.731Z,28.19
2022-09-12T07:43:25.231Z,28.53
2022-09-12T07:45:55.707Z,28.72
2022-09-12T07:48:23.332Z,28.11
2022-09-12T07:50:58.952Z,28.27
2022-09-12T07:53:26.230Z,28.51
2022-09-12T07:55:54.811Z,28.69
2022-09-12T07:58:23.513Z,28.46
2022-09-12T08:00:50.969Z,28.74
2022-09-12T08:03:18.392Z,29.02
2022-09-12T08:05:45.452Z,28.93
2022-09-12T08:08:12.772Z,29.11
2022-09-12T08:10:39.870Z,29.33
2022-09-12T08:13:06.960Z,29.64
2022-09-12T08:15:36.474Z,29.79
2022-09-12T08:18:03.951Z,29.91
2022-09-12T08:20:30.991Z,30.04
2022-09-12T08:22:58.012Z,30.24
2022-09-12T08:25:25.151Z,30.34
2022-09-12T08:27:52.229Z,30.45
2022-09-12T08:30:19.313Z,30.16
2022-09-12T08:32:47.931Z,29.89
2022-09-12T08:35:15.052Z,29.95
2022-09-12T08:37:42.417Z,30.16
2022-09-12T08:40:16.949Z,30.29
2022-09-12T08:42:58.850Z,30.25
2022-09-12T08:45:36.747Z,30.05
2022-09-12T08:48:09.749Z,30.27
2022-09-12T08:50:37.484Z,30.04
2022-09-12T08:53:14.039Z,30.02
2022-09-12T08:55:44.898Z,30.39
2022-09-12T08:58:16.482Z,30.56
2022-09-12T09:00:54.338Z,30.51
2022-09-12T09:03:51.161Z,30.61
2022-09-12T09:06:52.599Z,30.48
2022-09-12T09:09:34.863Z,30.40
2022-09-12T09:12:17.496Z,30.45
2022-09-12T09:15:00.948Z,30.70
2022-09-12T09:17:35.264Z,30.90
2022-09-12T09:20:17.429Z,30.65
2022-09-12T09:22:51.003Z,30.84
2022-09-12T09:25:23.900Z,30.75
2022-09-12T09:27:58.724Z,30.71
2022-09-12T09:30:25.920Z,30.54
2022-09-12T09:32:57.680Z,30.67
2022-09-12T09:35:38.656Z,30.72
2022-09-12T09:38:22.605Z,30.62
2022-09-12T09:41:07.326Z,30.95
2022-09-12T09:43:34.633Z,31.11
2022-09-12T09:46:01.920Z,31.39
2022-09-12T09:48:32.805Z,31.58
2022-09-12T09:51:04.701Z,31.15
2022-09-12T09:53:40.207Z,31.12
2022-09-12T09:56:15.452Z,31.06
2022-09-12T09:58:42.684Z,31.03
2022-09-12T10:01:15.966Z,30.67
2022-09-12T10:03:49.776Z,31.01
2022-09-12T10:06:30.215Z,30.87
2022-09-12T10:09:19.575Z,30.56
2022-09-12T10:11:47.500Z,30.92
2022-09-12T10:14:34.115Z,30.70
2022-09-12T10:17:03.256Z,30.55
2022-09-12T10:19:38.777Z,30.61
2022-09-12T10:22:18.214Z,30.69
2022-09-12T10:24:50.652Z,30.44
2022-09-12T10:27:22.729Z,29.97
2022-09-12T10:29:54.931Z,30.21
2022-09-12T10:32:34.110Z,30.41
2022-09-12T10:35:05.005Z,30.61
2022-09-12T10:37:37.190Z,30.27
2022-09-12T10:40:20.646Z,30.40
2022-09-12T10:42:50.349Z,30.38
2022-09-12T10:45:27.386Z,30.27
2022-09-12T10:47:56.729Z,30.55
2022-09-12T10:50:28.365Z,30.42
2022-09-12T10:53:15.003Z,30.48
2022-09-12T10:56:02.060Z,30.51
2022-09-12T10:59:01.551Z,30.13
2022-09-12T11:01:39.612Z,30.37
2022-09-12T11:04:29.409Z,30.47
2022-09-12T11:07:21.983Z,30.16
2022-09-12T11:10:01.765Z,30.19
2022-09-12T11:12:39.484Z,29.98
2022-09-12T11:15:29.743Z,30.49
2022-09-12T11:18:11.102Z,29.74
2022-09-12T11:20:59.823Z,30.09
2022-09-12T11:23:48.844Z,29.95
2022-09-12T11:26:32.401Z,29.70
2022-09-12T11:29:11.754Z,29.70
2022-09-12T11:32:01.720Z,29.87
2022-09-12T11:34:44.400Z,30.10
2022-09-12T11:37:37.639Z,30.15
2022-09-12T11:40:23.792Z,30.08
2022-09-12T11:42:59.460Z,29.91
2022-09-12T11:45:36.481Z,30.16
2022-09-12T11:48:13.026Z,29.72
2022-09-12T11:50:40.780Z,29.68
2022-09-12T11:53:18.760Z,29.89
2022-09-12T11:55:55.581Z,29.99
2022-09-12T11:58:28.248Z,29.95
2022-09-12T12:01:11.580Z,30.02
2022-09-12T12:03:43.200Z,29.89
2022-09-12T12:06:16.821Z,29.92
2022-09-12T12:08:46.394Z,30.04
2022-09-12T12:11:16.580Z,30.20
2022-09-12T12:13:52.719Z,29.90
2022-09-12T12:16:27.162Z,30.01
2022-09-12T12:18:57.079Z,30.08
2022-09-12T12:21:38.733Z,30.06
2022-09-12T12:24:15.782Z,30.20
2022-09-12T12:26:59.641Z,30.26
2022-09-12T12:29:44.920Z,30.22
2022-09-12T12:32:26.221Z,30.42
2022-09-12T12:35:20.641Z,30.40
2022-09-12T12:37:57.420Z,30.58
2022-09-12T12:40:27.703Z,30.60
2022-09-12T12:42:59.979Z,30.27
2022-09-12T12:46:04.597Z,30.06
2022-09-12T12:49:08.119Z,30.13
2022-09-12T12:52:00.301Z,29.72
2022-09-12T12:54:50.758Z,29.41
2022-09-12T12:57:28.840Z,29.73
2022-09-12T13:00:02.063Z,29.51
2022-09-12T13:02:35.109Z,29.06
2022-09-12T13:05:07.279Z,29.38
2022-09-12T13:07:38.742Z,29.85
2022-09-12T13:10:08.471Z,29.83
2022-09-12T13:12:44.459Z,29.75
2022-09-12T13:15:46.824Z,29.35
2022-09-12T13:18:24.081Z,29.53
2022-09-12T13:21:00.400Z,29.59
2022-09-12T13:23:29.780Z,29.55
2022-09-12T13:25:59.160Z,29.46
2022-09-12T13:28:28.422Z,29.63
2022-09-12T13:31:01.344Z,29.52
2022-09-12T13:33:36.981Z,29.68
2022-09-12T13:36:40.222Z,29.63
2022-09-12T13:39:19.141Z,29.75
2022-09-12T13:42:30.904Z,29.85
2022-09-12T13:45:05.361Z,29.86
2022-09-12T13:47:36.836Z,29.74
2022-09-12T13:50:13.092Z,29.71
2022-09-12T13:52:40.887Z,29.51
2022-09-12T13:55:23.540Z,29.52
2022-09-12T13:57:58.921Z,29.59
2022-09-12T14:00:26.182Z,29.47
2022-09-12T14:02:53.307Z,29.28
2022-09-12T14:05:25.801Z,29.26
2022-09-12T14:07:57.260Z,29.19
2022-09-12T14:10:30.621Z,29.50
2022-09-12T14:13:01.072Z,29.69
2022-09-12T14:15:31.424Z,29.73
2022-09-12T14:18:00.809Z,29.72
2022-09-12T14:20:31.469Z,29.77
2022-09-12T14:23:02.519Z,29.78
2022-09-12T14:25:37.982Z,29.54
2022-09-12T14:28:06.517Z,29.65
2022-09-12T14:30:36.520Z,29.56
2022-09-12T14:33:19.809Z,29.60
2022-09-12T14:35:52.141Z,29.62
2022-09-12T14:38:26.102Z,29.63
2022-09-12T14:41:00.625Z,29.77
2022-09-12T14:43:30.783Z,29.79
2022-09-12T14:46:02.170Z,29.80
2022-09-12T14:48:34.281Z,29.87
2022-09-12T14:51:05.462Z,29.86
2022-09-12T14:53:35.442Z,29.73
2022-09-12T14:56:12.021Z,29.61
2022-09-12T14:58:41.003Z,29.72
2022-09-12T15:01:32.039Z,29.77
2022-09-12T15:03:59.212Z,29.75
2022-09-12T15:06:31.360Z,29.74
2022-09-12T15:09:02.651Z,29.63
2022-09-12T15:11:30.063Z,29.56
2022-09-12T15:13:57.162Z,29.41
2022-09-12T15:16:24.294Z,29.43
2022-09-12T15:18:51.463Z,29.53
2022-09-12T15:21:21.283Z,29.54
2022-09-12T15:23:51.462Z,29.39
2022-09-12T15:26:20.780Z,29.51
2022-09-12T15:28:48.923Z,29.55
2022-09-12T15:31:28.255Z,29.52
2022-09-12T15:33:57.001Z,29.33
2022-09-12T15:36:25.677Z,29.31
2022-09-12T15:38:54.723Z,29.40
2022-09-12T15:41:25.140Z,29.49
2022-09-12T15:43:52.562Z,29.57
2022-09-12T15:46:20.498Z,29.51
2022-09-12T15:48:47.726Z,29.62
2022-09-12T15:51:17.486Z,29.73
2022-09-12T15:53:46.437Z,29.82
2022-09-12T15:56:18.019Z,29.91
2022-09-12T15:58:57.803Z,29.87
2022-09-12T16:01:26.251Z,29.88
2022-09-12T16:03:53.357Z,29.83
2022-09-12T16:06:20.460Z,29.81
2022-09-12T16:08:47.582Z,29.61
2022-09-12T16:11:21.401Z,29.66
2022-09-12T16:13:48.440Z,29.64
2022-09-12T16:16:15.633Z,29.65
2022-09-12T16:18:43.108Z,29.75
2022-09-12T16:21:14.987Z,29.73
2022-09-12T16:23:43.220Z,29.71
2022-09-12T16:26:10.379Z,29.63
2022-09-12T16:28:39.080Z,29.54
2022-09-12T16:31:09.305Z,29.53
2022-09-12T16:33:38.219Z,29.50
2022-09-12T16:36:07.583Z,29.44
2022-09-12T16:38:35.199Z,29.29
2022-09-12T16:41:02.879Z,29.38
2022-09-12T16:43:31.579Z,29.45
2022-09-12T16:46:05.114Z,29.50
2022-09-12T16:48:33.899Z,29.59
2022-09-12T16:51:03.859Z,29.64
2022-09-12T16:53:32.023Z,29.69
2022-09-12T16:55:59.202Z,29.77
2022-09-12T16:58:27.120Z,29.80
2022-09-12T17:01:00.362Z,29.88
2022-09-12T17:03:28.919Z,29.88
2022-09-12T17:05:59.439Z,29.87
2022-09-12T17:08:26.599Z,29.85
2022-09-12T17:10:53.711Z,29.88
2022-09-12T17:13:20.759Z,29.92
2022-09-12T17:15:47.885Z,29.89
2022-09-12T17:18:15.021Z,29.91
2022-09-12T17:20:43.521Z,29.90
2022-09-12T17:23:10.639Z,29.91
2022-09-12T17:25:37.740Z,29.89
2022-09-12T17:28:05.044Z,29.88
2022-09-12T17:30:34.720Z,29.84
2022-09-12T17:33:01.980Z,29.83
2022-09-12T17:35:29.259Z,29.79
2022-09-12T17:37:59.339Z,29.72
2022-09-12T17:40:48.826Z,29.66
2022-09-12T17:43:14.042Z,29.61
2022-09-12T17:45:41.840Z,29.58
2022-09-12T17:48:10.838Z,29.51
2022-09-12T17:50:39.529Z,29.42
2022-09-12T17:53:08.359Z,29.35
2022-09-12T17:55:35.799Z,29.24
2022-09-12T17:58:03.680Z,29.16
2022-09-12T18:00:31.780Z,29.07
2022-09-12T18:02:58.892Z,28.97
2022-09-12T18:05:25.960Z,28.89
2022-09-12T18:07:53.020Z,28.81
2022-09-12T18:10:21.579Z,28.73
2022-09-12T18:12:48.640Z,28.69
2022-09-12T18:15:15.919Z,28.66
2022-09-12T18:17:43.018Z,28.60
2022-09-12T18:20:10.199Z,28.54
2022-09-12T18:22:37.281Z,28.53
2022-09-12T18:25:04.939Z,28.50
2022-09-12T18:27:33.500Z,28.50
2022-09-12T18:30:19.965Z,28.54
2022-09-12T18:32:48.120Z,28.51
2022-09-12T18:35:15.400Z,28.53
2022-09-12T18:37:43.019Z,28.57
2022-09-12T18:40:11.269Z,28.58
2022-09-12T18:42:39.859Z,28.61
2022-09-12T18:45:08.418Z,28.54
2022-09-12T18:47:35.501Z,28.50
2022-09-12T18:50:02.619Z,28.42
2022-09-12T18:52:29.690Z,28.34
2022-09-12T18:54:56.899Z,28.28
2022-09-12T18:57:25.339Z,28.22
2022-09-12T18:59:53.802Z,28.13
2022-09-12T19:02:20.839Z,28.05
2022-09-12T19:04:47.900Z,27.93
2022-09-12T19:07:14.919Z,27.87
2022-09-12T19:09:41.964Z,27.81
2022-09-12T19:12:09.060Z,27.77
2022-09-12T19:14:36.180Z,27.77
2022-09-12T19:17:04.959Z,27.76
2022-09-12T19:19:32.019Z,27.70
2022-09-12T19:21:59.178Z,27.65
2022-09-12T19:24:26.339Z,27.59
2022-09-12T19:26:53.439Z,27.59
2022-09-12T19:29:20.760Z,27.58
2022-09-12T19:31:47.881Z,27.60
2022-09-12T19:34:16.520Z,27.55
2022-09-12T19:36:46.232Z,27.50
2022-09-12T19:39:16.570Z,27.52
2022-09-12T19:41:44.020Z,27.51
2022-09-12T19:44:11.140Z,27.51
2022-09-12T19:46:38.404Z,27.53
2022-09-12T19:49:05.812Z,27.53
2022-09-12T19:51:35.200Z,27.50
2022-09-12T19:54:02.519Z,27.52
2022-09-12T19:56:29.600Z,27.54
2022-09-12T19:58:57.038Z,27.46
2022-09-12T20:01:26.926Z,27.43
2022-09-12T20:03:54.298Z,27.40
2022-09-12T20:06:22.218Z,27.35
2022-09-12T20:08:50.819Z,27.35
2022-09-12T20:11:19.960Z,27.31
2022-09-12T20:13:47.924Z,27.22
2022-09-12T20:16:21.260Z,27.20
2022-09-12T20:18:54.323Z,27.16
2022-09-12T20:21:24.599Z,27.08
2022-09-12T20:23:53.103Z,27.05
2022-09-12T20:26:20.306Z,27.00
2022-09-12T20:28:47.875Z,27.00
2022-09-12T20:31:16.937Z,27.01
2022-09-12T20:33:47.544Z,26.97
2022-09-12T20:36:19.247Z,26.96
2022-09-12T20:38:48.737Z,26.91
2022-09-12T20:41:18.381Z,26.85
2022-09-12T20:43:45.472Z,26.82
2022-09-12T20:46:12.636Z,26.78
2022-09-12T20:48:39.986Z,26.68
2022-09-12T20:51:07.559Z,26.68
2022-09-12T20:53:35.576Z,26.68
2022-09-12T20:56:04.084Z,26.62
2022-09-12T20:58:33.705Z,26.61
2022-09-12T21:01:06.988Z,26.62
2022-09-12T21:03:37.345Z,26.54
2022-09-12T21:06:04.786Z,26.52
2022-09-12T21:08:32.165Z,26.50
2022-09-12T21:11:00.500Z,26.53
2022-09-12T21:13:27.828Z,26.53
2022-09-12T21:15:59.846Z,26.53
2022-09-12T21:18:27.345Z,26.48
2022-09-12T21:20:55.747Z,26.39
2022-09-12T21:23:24.844Z,26.33
2022-09-12T21:25:52.834Z,26.31
2022-09-12T21:28:20.289Z,26.31
2022-09-12T21:30:48.433Z,26.31
2022-09-12T21:33:18.625Z,26.27
2022-09-12T21:35:46.324Z,26.23
2022-09-12T21:38:13.485Z,26.23
2022-09-12T21:40:40.544Z,26.26
2022-09-12T21:43:12.334Z,26.28
2022-09-12T21:45:39.960Z,26.24
2022-09-12T21:48:07.363Z,26.21
2022-09-12T21:50:35.824Z,26.16
2022-09-12T21:53:03.047Z,26.17
2022-09-12T21:55:30.128Z,26.19
2022-09-12T21:57:57.139Z,26.19
2022-09-12T22:00:24.204Z,26.17
2022-09-12T22:02:51.370Z,26.09
2022-09-12T22:05:18.443Z,26.07
2022-09-12T22:07:46.984Z,26.09
2022-09-12T22:10:14.285Z,26.11
2022-09-12T22:12:45.944Z,26.06
2022-09-12T22:15:39.076Z,26.01
2022-09-12T22:18:01.105Z,26.02
2022-09-12T22:20:28.205Z,25.97
2022-09-12T22:22:56.726Z,26.36
2022-09-12T22:25:24.085Z,26.30
2022-09-12T22:27:51.186Z,26.31
2022-09-12T22:30:19.691Z,26.22
2022-09-12T22:32:47.084Z,26.20
2022-09-12T22:35:14.405Z,26.20
2022-09-12T22:37:41.646Z,26.14
2022-09-12T22:40:11.745Z,26.11
2022-09-12T22:42:38.889Z,26.01
2022-09-12T22:45:07.966Z,25.99
2022-09-12T22:47:35.087Z,26.01
2022-09-12T22:50:02.216Z,26.00
2022-09-12T22:52:29.265Z,25.98
2022-09-12T22:54:56.285Z,25.97
2022-09-12T22:57:24.824Z,25.97
2022-09-12T22:59:51.925Z,25.93
2022-09-12T23:02:18.905Z,25.92
2022-09-12T23:04:45.947Z,25.97
2022-09-12T23:07:13.166Z,25.84
2022-09-12T23:09:40.206Z,25.79
2022-09-12T23:12:07.527Z,25.75
2022-09-12T23:14:35.966Z,25.74
2022-09-12T23:17:03.657Z,26.32
2022-09-12T23:19:30.784Z,26.73
2022-09-12T23:21:57.873Z,27.07
2022-09-12T23:24:25.045Z,27.35
2022-09-12T23:26:52.188Z,27.59
2022-09-12T23:29:19.306Z,27.75
2022-09-12T23:31:47.895Z,27.87
2022-09-12T23:34:14.984Z,27.94
2022-09-12T23:36:42.065Z,28.04
2022-09-12T23:39:09.850Z,28.12
2022-09-12T23:41:36.926Z,28.16
2022-09-12T23:44:04.265Z,28.20
2022-09-12T23:46:31.464Z,28.26
2022-09-12T23:49:00.425Z,28.31
2022-09-12T23:51:27.524Z,28.33
2022-09-12T23:53:54.665Z,28.34
2022-09-12T23:56:21.765Z,28.36
2022-09-12T23:58:48.991Z,28.35
